Аэропорт: Рощино. Тюмень

ICAO: USTR

METAR:
2021-04-21 21:30:00
USTR 212130Z 12002MPS CAVOK 03/M02 Q1034 R12/CLRD65 R21/CLRD65 NOSIG
METAR:
2021-04-21 19:48:00
TAF USTR 211948Z 2121/2221 VRB01MPS CAVOK TEMPO 2121/2202 4000 BR FEW006 BECMG 2203/2204 16005MPS TEMPO 2208/2215 18009MPS